Time;durP1;ratioP1;P1;durP2;ratioP2;P2;SDS_P1;SDS_P2;PMS_P1;PMS_P2;Temp;Humidity;BMP_temperature;BMP_pressure;BME280_temperature;BME280_humidity;BME280_pressure;Samples;Min_cycle;Max_cycle;Signal;HPM_P1;HPM_P2
2023/07/01 00:02:12;;;;;;;6.43;3.10;;;17.90;99.90;;;;;;5087863;28;20220;-64
2023/07/01 00:04:41;;;;;;;5.00;3.03;;;17.90;99.90;;;;;;5088714;28;20207;-64
2023/07/01 00:07:10;;;;;;;4.13;2.87;;;17.90;99.90;;;;;;5086468;28;20220;-63
2023/07/01 00:09:39;;;;;;;7.80;3.47;;;17.90;99.90;;;;;;5087314;28;20226;-63
2023/07/01 00:12:08;;;;;;;3.80;3.40;;;17.90;99.90;;;;;;5091682;28;20214;-63
2023/07/01 00:14:36;;;;;;;4.07;3.20;;;17.90;99.90;;;;;;5087463;28;20222;-64
2023/07/01 00:17:05;;;;;;;9.47;3.27;;;17.90;99.90;;;;;;5070248;28;20219;-64
2023/07/01 00:19:33;;;;;;;4.77;3.20;;;18.00;99.90;;;;;;5087140;28;20223;-64
2023/07/01 00:22:02;;;;;;;4.10;3.00;;;17.90;99.90;;;;;;5089915;28;20222;-64
2023/07/01 00:24:31;;;;;;;5.97;3.07;;;17.90;99.90;;;;;;5076146;28;20219;-64
2023/07/01 00:27:00;;;;;;;3.63;3.20;;;17.90;99.90;;;;;;5087610;28;20202;-64
2023/07/01 00:29:29;;;;;;;14.27;3.43;;;17.80;99.90;;;;;;5088427;28;20566;-64
2023/07/01 00:31:57;;;;;;;5.07;3.73;;;17.90;99.90;;;;;;5083928;28;20219;-64
2023/07/01 00:34:25;;;;;;;5.83;3.20;;;17.90;99.90;;;;;;5087622;28;20222;-65
2023/07/01 00:36:54;;;;;;;4.50;3.20;;;17.80;99.90;;;;;;5090270;28;20217;-64
2023/07/01 00:39:22;;;;;;;3.83;2.97;;;17.80;99.90;;;;;;5071015;28;20553;-64
2023/07/01 00:41:53;;;;;;;4.10;3.00;;;17.80;99.90;;;;;;5081927;28;20188;-64
2023/07/01 00:44:23;;;;;;;5.80;3.23;;;17.80;99.90;;;;;;5084372;28;20211;-64
2023/07/01 00:46:52;;;;;;;3.93;3.20;;;17.90;99.90;;;;;;5086955;28;20725;-63
2023/07/01 00:49:20;;;;;;;5.77;3.13;;;17.80;99.90;;;;;;5076797;28;20222;-64
2023/07/01 00:51:48;;;;;;;5.03;2.97;;;17.80;99.90;;;;;;5085485;28;20219;-63
2023/07/01 00:54:17;;;;;;;3.00;2.80;;;17.80;99.90;;;;;;5084456;28;20216;-63
2023/07/01 00:56:45;;;;;;;4.67;2.80;;;17.80;99.90;;;;;;5085669;28;20569;-64
2023/07/01 00:59:13;;;;;;;3.83;3.40;;;17.80;99.90;;;;;;5083270;28;20677;-63
2023/07/01 01:01:48;;;;;;;5.93;3.20;;;17.80;99.90;;;;;;5089208;28;20581;-64
2023/07/01 01:04:21;;;;;;;3.93;3.10;;;17.80;99.90;;;;;;5086012;28;20218;-63
2023/07/01 01:06:59;;;;;;;3.20;2.90;;;17.70;99.90;;;;;;5086633;28;20221;-64
2023/07/01 01:09:36;;;;;;;2.93;2.63;;;17.60;99.90;;;;;;5085713;28;20287;-64
2023/07/01 01:12:07;;;;;;;5.33;3.00;;;17.60;99.90;;;;;;5087425;28;20194;-64
2023/07/01 01:14:37;;;;;;;3.40;3.07;;;17.50;99.90;;;;;;5086619;28;20222;-63
2023/07/01 01:17:10;;;;;;;4.13;2.90;;;17.50;99.90;;;;;;5086538;28;20211;-64
2023/07/01 01:19:42;;;;;;;4.20;2.93;;;17.50;99.90;;;;;;5085448;28;20214;-63
2023/07/01 01:22:16;;;;;;;4.33;2.90;;;17.60;99.90;;;;;;5079919;28;20234;-65
2023/07/01 01:24:50;;;;;;;3.20;2.90;;;17.50;99.90;;;;;;5086566;28;20217;-63
2023/07/01 01:27:24;;;;;;;3.60;3.30;;;17.60;99.90;;;;;;5088113;28;20626;-63
2023/07/01 01:29:53;;;;;;;4.33;2.63;;;17.60;99.90;;;;;;5090781;28;20560;-64
2023/07/01 01:32:22;;;;;;;6.20;3.20;;;17.60;99.90;;;;;;5090038;28;20305;-63
2023/07/01 01:34:51;;;;;;;6.93;3.17;;;17.50;99.90;;;;;;5091780;28;20299;-63
2023/07/01 01:37:26;;;;;;;4.10;3.10;;;17.50;99.90;;;;;;5089742;28;20317;-63
2023/07/01 01:40:09;;;;;;;3.10;2.80;;;17.40;99.90;;;;;;5089213;28;20217;-63
2023/07/01 01:42:41;;;;;;;4.20;3.20;;;17.30;99.90;;;;;;5087343;28;20211;-63
2023/07/01 01:45:12;;;;;;;3.07;2.80;;;17.30;99.90;;;;;;5087358;28;20275;-63
2023/07/01 01:47:41;;;;;;;6.03;3.20;;;17.20;99.90;;;;;;5086074;28;20225;-64
2023/07/01 01:50:12;;;;;;;3.37;3.07;;;17.10;99.90;;;;;;5091186;28;20225;-64
2023/07/01 01:52:42;;;;;;;3.70;2.90;;;17.00;99.90;;;;;;5091906;28;20306;-63
2023/07/01 01:55:13;;;;;;;3.37;2.80;;;17.10;99.90;;;;;;5072595;28;20224;-65
2023/07/01 01:57:42;;;;;;;3.00;2.80;;;17.10;99.90;;;;;;5088128;28;20215;-63
2023/07/01 02:00:13;;;;;;;5.63;2.80;;;17.00;99.90;;;;;;5087757;28;20196;-63
2023/07/01 02:02:41;;;;;;;2.77;2.57;;;17.00;99.90;;;;;;5089690;28;20211;-63
2023/07/01 02:05:10;;;;;;;5.13;3.17;;;17.00;99.90;;;;;;5089502;28;20238;-63
2023/07/01 02:07:39;;;;;;;4.27;2.90;;;17.00;99.90;;;;;;5088288;28;20219;-63
2023/07/01 02:10:08;;;;;;;3.27;3.17;;;16.90;99.90;;;;;;5088114;28;20224;-63
2023/07/01 02:12:37;;;;;;;5.33;2.60;;;17.00;99.90;;;;;;5072593;28;20235;-64
2023/07/01 02:15:05;;;;;;;3.17;2.87;;;17.00;99.90;;;;;;5090468;28;20191;-62
2023/07/01 02:17:35;;;;;;;3.13;2.67;;;16.90;99.90;;;;;;5087053;28;20301;-62
2023/07/01 02:20:05;;;;;;;3.10;2.90;;;16.90;99.90;;;;;;5088303;28;20245;-63
2023/07/01 02:22:33;;;;;;;3.00;2.70;;;16.90;99.90;;;;;;5089265;28;21867;-63
2023/07/01 02:25:02;;;;;;;3.10;2.93;;;16.90;99.90;;;;;;5090397;28;20591;-63
2023/07/01 02:27:31;;;;;;;3.10;3.00;;;16.90;99.90;;;;;;5088574;28;20190;-63
2023/07/01 02:29:59;;;;;;;2.97;2.70;;;16.90;99.90;;;;;;5090928;28;20290;-63
2023/07/01 02:32:27;;;;;;;4.33;2.93;;;17.00;99.90;;;;;;5090886;28;20219;-63
2023/07/01 02:34:57;;;;;;;3.20;2.83;;;16.90;99.90;;;;;;5086918;28;20216;-63
2023/07/01 02:37:25;;;;;;;4.83;3.27;;;16.90;99.90;;;;;;5084800;28;20225;-63
2023/07/01 02:39:54;;;;;;;3.50;3.20;;;16.90;99.90;;;;;;5066070;28;20572;-64
2023/07/01 02:42:22;;;;;;;3.10;2.83;;;16.90;99.90;;;;;;5087598;28;20201;-64
2023/07/01 02:44:50;;;;;;;3.00;2.70;;;16.90;99.90;;;;;;5087774;28;20201;-64
2023/07/01 02:47:19;;;;;;;3.20;3.00;;;16.90;99.90;;;;;;5088871;28;20561;-63
2023/07/01 02:49:49;;;;;;;2.80;2.70;;;16.90;99.90;;;;;;5088645;28;20268;-63
2023/07/01 02:52:19;;;;;;;5.13;3.10;;;16.90;99.90;;;;;;5084816;28;20241;-63
2023/07/01 02:54:47;;;;;;;5.20;3.10;;;16.90;99.90;;;;;;5089595;28;20255;-64
2023/07/01 02:57:17;;;;;;;3.17;2.97;;;16.90;99.90;;;;;;5085680;28;20206;-64
2023/07/01 02:59:48;;;;;;;3.63;2.97;;;16.90;99.90;;;;;;5087781;28;20196;-63
2023/07/01 03:02:17;;;;;;;3.20;3.00;;;16.80;99.90;;;;;;5082323;28;20722;-63
2023/07/01 03:04:45;;;;;;;2.87;2.70;;;16.80;99.90;;;;;;5087205;28;20707;-63
2023/07/01 03:07:14;;;;;;;3.10;2.80;;;16.80;99.90;;;;;;5072088;28;20208;-63
2023/07/01 03:09:43;;;;;;;4.77;3.10;;;16.80;99.90;;;;;;5089882;28;20641;-62
2023/07/01 03:12:11;;;;;;;3.13;2.50;;;16.80;99.90;;;;;;5073144;28;20188;-63
2023/07/01 03:14:40;;;;;;;3.73;2.70;;;16.80;99.90;;;;;;5089636;28;20213;-63
2023/07/01 03:17:08;;;;;;;3.27;3.00;;;16.80;99.90;;;;;;5083015;28;20228;-63
2023/07/01 03:19:36;;;;;;;2.67;2.47;;;16.80;99.90;;;;;;5085767;28;20208;-64
2023/07/01 03:22:05;;;;;;;5.53;2.80;;;16.80;99.90;;;;;;5090810;28;20217;-63
2023/07/01 03:24:34;;;;;;;2.73;2.60;;;16.80;99.90;;;;;;5088207;28;20565;-64
2023/07/01 03:27:05;;;;;;;2.93;2.70;;;16.70;99.90;;;;;;5090605;28;20184;-62
2023/07/01 03:29:34;;;;;;;3.27;2.90;;;16.80;99.90;;;;;;5087698;28;20225;-63
2023/07/01 03:32:03;;;;;;;4.07;2.90;;;16.80;99.90;;;;;;5086532;28;20216;-63
2023/07/01 03:34:31;;;;;;;2.90;2.80;;;16.70;99.90;;;;;;5089641;28;20227;-63
2023/07/01 03:37:00;;;;;;;5.30;2.53;;;16.70;99.90;;;;;;5070917;28;20218;-63
2023/07/01 03:39:28;;;;;;;3.13;2.83;;;16.70;99.90;;;;;;5088790;28;20219;-64
2023/07/01 03:41:56;;;;;;;2.80;2.63;;;16.60;99.90;;;;;;5087148;28;20278;-63
2023/07/01 03:44:26;;;;;;;3.03;2.80;;;16.60;99.90;;;;;;5087656;28;20218;-63
2023/07/01 03:46:54;;;;;;;2.80;2.70;;;16.60;99.90;;;;;;5087839;28;20221;-64
2023/07/01 03:49:22;;;;;;;2.67;2.57;;;16.70;99.90;;;;;;5086403;28;20720;-64
2023/07/01 03:51:52;;;;;;;4.77;2.83;;;16.60;99.90;;;;;;5090916;28;20679;-63
2023/07/01 03:54:20;;;;;;;2.47;2.37;;;16.70;99.90;;;;;;5088892;28;20236;-62
2023/07/01 03:56:49;;;;;;;3.37;2.50;;;16.70;99.90;;;;;;5089235;28;20210;-63
2023/07/01 03:59:17;;;;;;;2.83;2.63;;;16.70;99.90;;;;;;5087623;28;20210;-63
2023/07/01 04:01:47;;;;;;;2.60;2.40;;;16.70;99.90;;;;;;5087301;28;20268;-63
2023/07/01 04:04:15;;;;;;;2.90;2.70;;;16.70;99.90;;;;;;5083378;28;20213;-64
2023/07/01 04:06:44;;;;;;;2.80;2.63;;;16.70;99.90;;;;;;5091788;28;20219;-66
2023/07/01 04:09:13;;;;;;;2.97;2.70;;;16.70;99.90;;;;;;5073122;28;20675;-64
2023/07/01 04:11:41;;;;;;;2.90;2.70;;;16.70;99.90;;;;;;5085775;28;20225;-64
2023/07/01 04:14:09;;;;;;;3.13;2.93;;;16.60;99.90;;;;;;5088496;28;20250;-64
2023/07/01 04:16:38;;;;;;;3.00;2.80;;;16.60;99.90;;;;;;5083920;28;20222;-65
2023/07/01 04:19:08;;;;;;;3.60;2.67;;;16.60;99.90;;;;;;5089462;28;20217;-65
2023/07/01 04:21:36;;;;;;;2.80;2.60;;;16.50;99.90;;;;;;5089548;28;20218;-64
2023/07/01 04:24:07;;;;;;;2.47;2.37;;;16.60;99.90;;;;;;5088051;28;20207;-64
2023/07/01 04:26:36;;;;;;;2.43;2.33;;;16.50;99.90;;;;;;5090084;28;20798;-66
2023/07/01 04:29:04;;;;;;;2.70;2.30;;;16.50;99.90;;;;;;5086209;28;20229;-65
2023/07/01 04:31:32;;;;;;;2.27;2.27;;;16.50;99.90;;;;;;5090413;28;20215;-64
2023/07/01 04:34:01;;;;;;;2.83;2.63;;;16.50;99.90;;;;;;5086867;28;20222;-64
2023/07/01 04:36:30;;;;;;;2.50;2.40;;;16.50;99.90;;;;;;5080982;28;20290;-64
2023/07/01 04:38:59;;;;;;;3.63;2.60;;;16.50;99.90;;;;;;5082278;28;20663;-64
2023/07/01 04:41:27;;;;;;;2.87;2.77;;;16.50;99.90;;;;;;5090440;28;20221;-64
2023/07/01 04:43:56;;;;;;;3.10;2.80;;;16.60;99.90;;;;;;5086579;28;20304;-64
2023/07/01 04:46:25;;;;;;;3.73;2.80;;;16.60;99.90;;;;;;5090047;28;20215;-64
2023/07/01 04:48:53;;;;;;;2.97;2.87;;;16.60;99.90;;;;;;5087644;28;20722;-63
2023/07/01 04:51:21;;;;;;;3.00;2.80;;;16.60;99.90;;;;;;5089094;28;20508;-65
2023/07/01 04:53:51;;;;;;;3.00;2.90;;;16.60;99.90;;;;;;5081848;28;20269;-65
2023/07/01 04:56:23;;;;;;;3.13;2.93;;;16.60;99.90;;;;;;5090827;28;20257;-64
2023/07/01 04:58:53;;;;;;;3.00;2.90;;;16.60;99.90;;;;;;5087668;28;20644;-66
2023/07/01 05:01:22;;;;;;;3.23;3.00;;;16.60;99.90;;;;;;5084635;28;20672;-66
2023/07/01 05:03:51;;;;;;;3.50;3.20;;;16.60;99.90;;;;;;5089593;28;20247;-64
2023/07/01 05:06:19;;;;;;;3.00;2.90;;;16.70;99.90;;;;;;5093284;28;20227;-65
2023/07/01 05:08:47;;;;;;;3.40;3.20;;;16.70;99.90;;;;;;5092562;28;20190;-65
2023/07/01 05:11:17;;;;;;;3.73;3.00;;;16.70;99.90;;;;;;5092671;28;20300;-65
2023/07/01 05:13:46;;;;;;;4.63;3.20;;;16.70;99.90;;;;;;5090596;28;20556;-65
2023/07/01 05:16:14;;;;;;;3.40;3.20;;;16.70;99.90;;;;;;5093203;28;20222;-65
2023/07/01 05:18:42;;;;;;;3.10;3.00;;;16.70;99.90;;;;;;5091049;28;20293;-65
2023/07/01 05:21:11;;;;;;;3.17;2.97;;;16.70;99.90;;;;;;5091173;28;20652;-65
2023/07/01 05:23:39;;;;;;;2.70;2.60;;;16.70;99.90;;;;;;5093466;28;20223;-64
2023/07/01 05:26:07;;;;;;;3.00;2.90;;;16.80;99.90;;;;;;5092427;28;20211;-65
2023/07/01 05:28:37;;;;;;;3.03;2.93;;;16.70;99.90;;;;;;5092716;28;20220;-65
2023/07/01 05:31:05;;;;;;;3.00;2.80;;;16.80;99.90;;;;;;5089897;28;20239;-64
2023/07/01 05:33:34;;;;;;;3.03;2.77;;;16.80;99.90;;;;;;5090290;28;20598;-65
2023/07/01 05:36:02;;;;;;;2.87;2.77;;;16.80;99.90;;;;;;5090895;28;20197;-65
2023/07/01 05:38:30;;;;;;;2.90;2.80;;;16.90;99.90;;;;;;5089932;28;20217;-65
2023/07/01 05:40:59;;;;;;;2.73;2.63;;;16.80;99.90;;;;;;5089681;28;20246;-66
2023/07/01 05:43:27;;;;;;;2.97;2.87;;;16.90;99.90;;;;;;5090591;28;20218;-64
2023/07/01 05:45:57;;;;;;;3.00;2.83;;;17.00;99.90;;;;;;5090435;28;20219;-66
2023/07/01 05:48:25;;;;;;;2.33;2.33;;;16.90;99.90;;;;;;5088560;28;20503;-66
2023/07/01 05:50:53;;;;;;;2.63;2.47;;;17.00;99.90;;;;;;5092423;28;20190;-66
2023/07/01 05:53:22;;;;;;;2.50;2.40;;;17.00;99.90;;;;;;5085394;28;20310;-65
2023/07/01 05:55:50;;;;;;;2.60;2.50;;;17.00;99.90;;;;;;5088689;28;20278;-65
2023/07/01 05:58:18;;;;;;;2.40;2.30;;;17.00;99.90;;;;;;5087647;28;20275;-63
2023/07/01 06:00:46;;;;;;;2.50;2.40;;;17.00;99.90;;;;;;5089914;28;20309;-64
2023/07/01 06:03:17;;;;;;;2.57;2.37;;;17.00;99.90;;;;;;5091851;28;20201;-65
2023/07/01 06:05:45;;;;;;;2.30;2.20;;;17.00;99.90;;;;;;5087459;28;20194;-64
2023/07/01 06:08:13;;;;;;;2.10;2.10;;;17.00;99.90;;;;;;5089440;28;20299;-64
2023/07/01 06:10:41;;;;;;;1.97;1.87;;;17.00;99.90;;;;;;5083808;28;20218;-64
2023/07/01 06:13:10;;;;;;;2.37;2.27;;;17.00;99.90;;;;;;5066560;28;20222;-65
2023/07/01 06:15:38;;;;;;;2.20;2.10;;;17.00;99.90;;;;;;5089193;28;20289;-65
2023/07/01 06:18:06;;;;;;;2.63;2.23;;;17.00;99.90;;;;;;5067947;28;20204;-65
2023/07/01 06:20:36;;;;;;;2.27;2.17;;;17.00;99.90;;;;;;5091185;28;20275;-64
2023/07/01 06:23:05;;;;;;;2.30;2.20;;;17.00;99.90;;;;;;5075004;28;21948;-65
2023/07/01 06:25:33;;;;;;;2.10;2.10;;;17.00;99.90;;;;;;5090491;28;20224;-64
2023/07/01 06:28:02;;;;;;;2.57;2.43;;;17.00;99.90;;;;;;5091526;28;20206;-66
2023/07/01 06:30:30;;;;;;;2.23;2.23;;;17.00;99.90;;;;;;5089660;28;20189;-65
2023/07/01 06:32:58;;;;;;;2.77;2.50;;;17.10;99.90;;;;;;5072502;28;20217;-64
2023/07/01 06:35:27;;;;;;;2.63;2.53;;;17.00;99.90;;;;;;5088889;28;20320;-64
2023/07/01 06:37:56;;;;;;;2.43;2.33;;;17.10;99.90;;;;;;5092207;28;20217;-65
2023/07/01 06:40:25;;;;;;;2.10;2.10;;;17.10;99.90;;;;;;5091498;28;20217;-65
2023/07/01 06:42:53;;;;;;;1.93;1.93;;;17.10;99.90;;;;;;5086915;28;20217;-65
2023/07/01 06:45:22;;;;;;;2.23;2.13;;;17.10;99.90;;;;;;5091774;28;20194;-65
2023/07/01 06:47:50;;;;;;;2.50;2.40;;;17.10;99.90;;;;;;5071011;28;20603;-64
2023/07/01 06:50:18;;;;;;;2.63;2.43;;;17.10;99.90;;;;;;5088232;28;20733;-66
2023/07/01 06:52:49;;;;;;;2.83;2.73;;;17.10;99.90;;;;;;5089765;28;20582;-65
2023/07/01 06:55:19;;;;;;;2.50;2.50;;;17.10;99.90;;;;;;5089889;28;20215;-66
2023/07/01 06:57:47;;;;;;;2.60;2.50;;;17.20;99.90;;;;;;5090693;28;20324;-66
2023/07/01 07:00:16;;;;;;;2.70;2.60;;;17.20;99.90;;;;;;5069304;28;20210;-66
2023/07/01 07:02:45;;;;;;;2.83;2.73;;;17.30;99.90;;;;;;5090472;28;20188;-66
2023/07/01 07:05:13;;;;;;;2.93;2.83;;;17.30;99.90;;;;;;5084803;28;20215;-66
2023/07/01 07:07:42;;;;;;;3.10;2.90;;;17.30;99.90;;;;;;5074215;28;20238;-66
2023/07/01 07:10:11;;;;;;;2.90;2.70;;;17.40;99.90;;;;;;5091499;28;20664;-66
2023/07/01 07:12:41;;;;;;;2.80;2.70;;;17.40;99.90;;;;;;5087441;28;20629;-64
2023/07/01 07:15:10;;;;;;;2.63;2.50;;;17.40;99.90;;;;;;5088869;28;20310;-65
2023/07/01 07:17:38;;;;;;;2.83;2.63;;;17.40;99.90;;;;;;5089280;28;20242;-65
2023/07/01 07:20:08;;;;;;;2.90;2.67;;;17.40;99.90;;;;;;5090756;28;20222;-65
2023/07/01 07:22:36;;;;;;;3.07;2.87;;;17.40;99.90;;;;;;5091954;28;20214;-66
2023/07/01 07:25:05;;;;;;;3.10;2.90;;;17.50;99.90;;;;;;5087190;28;20215;-65
2023/07/01 07:27:33;;;;;;;3.17;3.07;;;17.50;99.90;;;;;;5087647;28;20651;-65
2023/07/01 07:30:03;;;;;;;3.00;2.90;;;17.60;99.90;;;;;;5089478;28;20671;-66
2023/07/01 07:32:33;;;;;;;2.77;2.67;;;17.60;99.90;;;;;;5086461;28;20212;-65
2023/07/01 07:35:01;;;;;;;3.20;2.93;;;17.60;99.90;;;;;;5066938;28;20215;-66
2023/07/01 07:37:29;;;;;;;3.50;3.33;;;17.70;99.90;;;;;;5084844;28;20227;-66
2023/07/01 07:39:59;;;;;;;3.83;3.53;;;17.60;99.90;;;;;;5070078;28;20222;-65
2023/07/01 07:42:28;;;;;;;4.90;3.60;;;17.70;99.90;;;;;;5068135;28;20281;-66
2023/07/01 07:44:56;;;;;;;4.00;3.80;;;17.80;99.90;;;;;;5079485;28;20216;-65
2023/07/01 07:47:27;;;;;;;4.00;3.80;;;17.80;99.90;;;;;;5089789;28;20230;-66
2023/07/01 07:49:55;;;;;;;4.10;3.80;;;17.90;99.90;;;;;;5087989;28;20211;-65
2023/07/01 07:52:24;;;;;;;3.90;3.70;;;17.90;99.90;;;;;;5073493;28;20222;-65
2023/07/01 07:54:52;;;;;;;4.53;4.13;;;17.90;99.90;;;;;;5088378;28;20230;-64
2023/07/01 07:57:20;;;;;;;4.20;3.90;;;18.00;99.90;;;;;;5089198;28;20228;-65
2023/07/01 07:59:49;;;;;;;4.97;4.60;;;18.00;99.90;;;;;;5088439;28;20221;-65
2023/07/01 08:02:17;;;;;;;4.13;3.83;;;18.10;99.90;;;;;;5087821;28;20217;-65
2023/07/01 08:04:47;;;;;;;3.63;3.53;;;18.10;99.90;;;;;;5086670;28;20211;-65
2023/07/01 08:07:15;;;;;;;3.33;3.23;;;18.20;99.90;;;;;;5072399;28;20211;-65
2023/07/01 08:09:44;;;;;;;3.33;3.13;;;18.20;99.90;;;;;;5087290;28;20237;-65
2023/07/01 08:12:12;;;;;;;3.17;2.97;;;18.20;99.90;;;;;;5090611;28;20188;-65
2023/07/01 08:14:40;;;;;;;2.67;2.60;;;18.30;99.90;;;;;;5090081;28;20223;-66
2023/07/01 08:17:09;;;;;;;3.20;2.90;;;18.30;99.90;;;;;;5090385;28;20222;-65
2023/07/01 08:19:37;;;;;;;2.67;2.43;;;18.30;99.90;;;;;;5086855;28;20223;-65
2023/07/01 08:22:07;;;;;;;2.23;2.13;;;18.40;99.90;;;;;;5090225;28;20215;-65
2023/07/01 08:24:35;;;;;;;2.37;2.27;;;18.40;99.90;;;;;;5090865;28;20226;-64
2023/07/01 08:27:04;;;;;;;2.23;2.20;;;18.40;99.90;;;;;;5072862;28;20195;-64
2023/07/01 08:29:32;;;;;;;2.10;2.10;;;18.50;99.90;;;;;;5086731;28;20219;-65
2023/07/01 08:32:00;;;;;;;2.07;2.00;;;18.50;99.90;;;;;;5087150;28;20671;-66
2023/07/01 08:34:29;;;;;;;2.00;1.90;;;18.50;99.90;;;;;;5089789;28;20531;-67
2023/07/01 08:36:57;;;;;;;1.60;1.60;;;18.50;99.90;;;;;;5089371;28;20219;-65
2023/07/01 08:39:29;;;;;;;1.77;1.77;;;18.50;99.90;;;;;;5094030;28;20302;-65
2023/07/01 08:42:03;;;;;;;2.13;1.90;;;18.50;99.90;;;;;;5093875;28;20700;-64
2023/07/01 08:44:31;;;;;;;1.50;1.50;;;18.60;99.90;;;;;;5088955;28;20223;-64
2023/07/01 08:47:02;;;;;;;1.80;1.80;;;18.60;99.90;;;;;;5092144;28;20217;-65
2023/07/01 08:49:30;;;;;;;1.90;1.90;;;18.60;99.90;;;;;;5076933;28;20215;-66
2023/07/01 08:52:06;;;;;;;2.13;1.97;;;18.70;99.90;;;;;;5094266;28;20219;-65
2023/07/01 08:54:37;;;;;;;2.27;1.80;;;18.70;99.90;;;;;;5074856;28;20648;-65
2023/07/01 08:57:08;;;;;;;2.10;2.10;;;18.80;99.90;;;;;;5094815;28;20195;-64
2023/07/01 08:59:37;;;;;;;2.00;1.90;;;18.80;99.90;;;;;;5091135;28;20280;-65
2023/07/01 09:02:07;;;;;;;2.00;1.90;;;18.70;99.90;;;;;;5094277;28;20222;-65
2023/07/01 09:04:38;;;;;;;2.17;2.07;;;18.80;99.90;;;;;;5092030;28;20222;-66
2023/07/01 09:07:09;;;;;;;2.67;2.57;;;18.80;99.90;;;;;;5087182;28;20215;-66
2023/07/01 09:09:40;;;;;;;2.20;2.10;;;18.70;99.90;;;;;;5088888;28;20639;-65
2023/07/01 09:12:10;;;;;;;2.63;2.50;;;18.80;99.90;;;;;;5094491;28;20589;-64
2023/07/01 09:14:58;;;;;;;2.60;2.40;;;18.80;99.90;;;;;;5092260;28;20211;-66
2023/07/01 09:17:35;;;;;;;2.47;2.37;;;18.80;99.90;;;;;;5093965;28;20222;-66
2023/07/01 09:20:05;;;;;;;2.30;2.30;;;18.80;99.90;;;;;;5094446;28;20314;-66
2023/07/01 09:22:35;;;;;;;2.47;2.37;;;18.80;99.90;;;;;;5089101;28;20302;-65
2023/07/01 09:25:06;;;;;;;2.77;2.67;;;18.80;99.90;;;;;;5092386;28;20237;-65
2023/07/01 09:27:41;;;;;;;3.93;2.63;;;18.90;99.90;;;;;;5087712;28;20218;-66
2023/07/01 09:30:25;;;;;;;2.67;2.47;;;18.90;99.90;;;;;;5092461;28;20190;-65
2023/07/01 09:33:09;;;;;;;3.33;2.80;;;19.00;99.90;;;;;;5087217;28;20222;-66
2023/07/01 09:35:42;;;;;;;3.10;2.80;;;19.10;99.90;;;;;;5089218;28;20294;-66
2023/07/01 09:38:11;;;;;;;2.53;2.43;;;19.20;99.90;;;;;;5091740;28;20681;-65
2023/07/01 09:40:41;;;;;;;3.73;2.67;;;19.20;99.90;;;;;;5089993;28;20221;-66
2023/07/01 09:43:09;;;;;;;2.87;2.77;;;19.10;99.90;;;;;;5088338;28;20226;-65
2023/07/01 09:45:37;;;;;;;3.27;2.63;;;19.20;99.90;;;;;;5094255;28;20229;-65
2023/07/01 09:48:12;;;;;;;3.30;3.00;;;19.20;99.90;;;;;;5093701;28;20215;-66
2023/07/01 09:50:40;;;;;;;3.43;3.10;;;19.20;99.90;;;;;;5091695;28;20207;-65
2023/07/01 09:53:20;;;;;;;4.53;3.10;;;19.30;99.90;;;;;;5093343;28;20276;-64
2023/07/01 09:55:50;;;;;;;3.37;2.93;;;19.40;99.90;;;;;;5088796;28;20218;-64
2023/07/01 09:58:19;;;;;;;5.63;3.13;;;19.50;99.90;;;;;;5088051;28;20565;-65
2023/07/01 10:00:48;;;;;;;3.73;2.93;;;19.60;99.90;;;;;;5088759;28;20219;-66
2023/07/01 10:03:17;;;;;;;6.47;3.00;;;19.70;99.90;;;;;;5089302;28;20195;-66
2023/07/01 10:05:50;;;;;;;4.17;2.83;;;19.90;99.90;;;;;;5074318;28;20310;-65
2023/07/01 10:08:19;;;;;;;3.03;2.80;;;20.10;99.90;;;;;;5089178;28;20670;-66
2023/07/01 10:10:59;;;;;;;4.93;2.80;;;20.20;99.90;;;;;;5088115;28;20215;-66
2023/07/01 10:13:29;;;;;;;3.53;3.00;;;20.30;99.90;;;;;;5090469;28;20358;-64
2023/07/01 10:16:01;;;;;;;5.73;2.80;;;20.50;99.90;;;;;;5084507;28;20211;-64
2023/07/01 10:18:33;;;;;;;2.43;2.23;;;20.50;99.90;;;;;;5087480;28;20194;-65
2023/07/01 10:21:29;;;;;;;5.03;2.90;;;20.50;99.90;;;;;;5091568;28;20207;-64
2023/07/01 10:23:59;;;;;;;3.93;2.57;;;20.60;99.90;;;;;;5087053;28;20234;-64
2023/07/01 10:26:37;;;;;;;2.93;2.30;;;20.80;99.90;;;;;;5087476;28;20229;-64
2023/07/01 10:29:39;;;;;;;3.17;2.43;;;20.70;99.90;;;;;;5089692;28;20693;-63
2023/07/01 10:32:34;;;;;;;3.47;2.67;;;20.60;99.90;;;;;;5090129;28;20301;-62
2023/07/01 10:35:14;;;;;;;3.33;2.53;;;20.40;99.90;;;;;;5079747;28;20636;-65
2023/07/01 10:38:05;;;;;;;2.53;2.43;;;20.30;99.90;;;;;;5090941;28;20554;-63
2023/07/01 10:40:44;;;;;;;3.77;2.70;;;20.20;99.90;;;;;;5089861;28;20318;-63
2023/07/01 10:43:25;;;;;;;4.67;3.13;;;20.30;99.90;;;;;;5085622;28;20309;-64
2023/07/01 10:46:20;;;;;;;2.80;2.40;;;20.60;99.90;;;;;;5085691;28;20219;-63
2023/07/01 10:49:08;;;;;;;7.67;2.80;;;20.80;99.90;;;;;;5089522;28;20589;-64
2023/07/01 10:52:07;;;;;;;4.33;2.20;;;21.10;99.90;;;;;;5092153;28;20699;-64
2023/07/01 10:54:38;;;;;;;3.33;2.30;;;21.10;99.90;;;;;;5072163;28;20234;-64
2023/07/01 10:57:14;;;;;;;3.27;2.43;;;21.20;99.90;;;;;;5091246;28;20219;-64
2023/07/01 10:59:44;;;;;;;7.77;2.60;;;21.20;99.90;;;;;;5081888;28;20310;-63
2023/07/01 11:02:36;;;;;;;2.50;2.37;;;21.30;99.90;;;;;;5072484;28;20215;-64
2023/07/01 11:05:08;;;;;;;4.03;2.70;;;21.50;99.90;;;;;;5091274;28;20570;-63
2023/07/01 11:07:41;;;;;;;2.53;2.33;;;21.60;99.90;;;;;;5069404;28;20573;-64
2023/07/01 11:10:10;;;;;;;2.43;1.90;;;21.70;99.90;;;;;;5090928;28;20681;-64
2023/07/01 11:12:39;;;;;;;4.53;2.50;;;21.80;99.90;;;;;;5089267;28;20257;-63
2023/07/01 11:15:16;;;;;;;6.20;2.83;;;21.70;99.90;;;;;;5088131;28;20218;-63
2023/07/01 11:17:52;;;;;;;3.47;2.40;;;21.60;99.90;;;;;;5090950;28;20199;-63
2023/07/01 11:20:21;;;;;;;4.37;2.73;;;21.50;99.90;;;;;;5091238;28;20211;-64
2023/07/01 11:22:50;;;;;;;2.87;2.30;;;21.60;99.90;;;;;;5090785;28;20219;-63
2023/07/01 11:25:18;;;;;;;3.47;2.40;;;21.50;99.90;;;;;;5085239;28;20222;-63
2023/07/01 11:27:48;;;;;;;3.80;2.30;;;21.60;99.90;;;;;;5090791;28;20246;-63
2023/07/01 11:30:31;;;;;;;2.93;2.30;;;21.70;99.90;;;;;;5088439;28;20278;-64
2023/07/01 11:33:11;;;;;;;2.63;2.43;;;21.80;99.90;;;;;;5072309;28;20201;-62
2023/07/01 11:35:52;;;;;;;2.70;2.50;;;21.80;99.90;;;;;;5068454;28;20571;-63
2023/07/01 11:38:27;;;;;;;4.03;2.47;;;21.90;99.90;;;;;;5069944;28;20222;-63
2023/07/01 11:40:55;;;;;;;3.23;2.30;;;21.90;99.90;;;;;;5083536;28;20215;-63
2023/07/01 11:43:23;;;;;;;2.53;2.30;;;21.90;99.90;;;;;;5085114;28;20223;-63
2023/07/01 11:45:54;;;;;;;6.07;2.47;;;21.90;99.90;;;;;;5086193;28;20602;-62
2023/07/01 11:48:32;;;;;;;2.83;2.57;;;21.90;99.90;;;;;;5089996;28;20228;-63
2023/07/01 11:51:00;;;;;;;5.27;2.80;;;22.00;99.90;;;;;;5086831;28;20188;-63
2023/07/01 11:53:29;;;;;;;3.63;2.40;;;21.90;99.90;;;;;;5087109;28;20338;-63
2023/07/01 11:55:58;;;;;;;2.20;2.00;;;21.90;99.90;;;;;;5067169;28;20220;-63
2023/07/01 11:58:28;;;;;;;5.07;2.87;;;21.80;99.90;;;;;;5084682;28;20249;-62
2023/07/01 12:00:58;;;;;;;7.30;2.50;;;21.80;99.90;;;;;;5086358;28;20216;-62
2023/07/01 12:03:33;;;;;;;4.03;2.33;;;21.70;99.90;;;;;;5090040;28;20198;-63
2023/07/01 12:06:04;;;;;;;2.40;2.30;;;21.70;99.90;;;;;;5087919;28;20193;-63
2023/07/01 12:08:51;;;;;;;3.40;2.47;;;21.70;99.90;;;;;;5088873;28;20217;-62
2023/07/01 12:11:44;;;;;;;3.23;3.03;;;21.70;99.90;;;;;;5084816;28;20218;-63
2023/07/01 12:14:19;;;;;;;4.27;3.13;;;21.80;99.90;;;;;;5081069;28;20230;-64
2023/07/01 12:16:50;;;;;;;3.97;3.03;;;21.70;99.90;;;;;;5083117;28;20888;-63
2023/07/01 12:19:20;;;;;;;3.50;2.70;;;21.80;99.90;;;;;;5091522;28;20710;-63
2023/07/01 12:21:49;;;;;;;6.63;2.57;;;21.70;99.90;;;;;;5090313;28;20306;-63
2023/07/01 12:24:19;;;;;;;2.57;2.37;;;21.80;99.90;;;;;;5091019;28;20192;-63
2023/07/01 12:26:49;;;;;;;4.80;2.40;;;21.90;99.90;;;;;;5091036;28;20200;-62
2023/07/01 12:29:17;;;;;;;2.57;2.20;;;21.90;99.90;;;;;;5089077;28;20228;-63
2023/07/01 12:31:46;;;;;;;2.47;2.27;;;21.80;99.90;;;;;;5068173;28;20222;-64
2023/07/01 12:34:17;;;;;;;2.80;2.60;;;21.70;99.90;;;;;;5087517;28;20211;-63
2023/07/01 12:36:46;;;;;;;3.87;2.60;;;21.60;99.90;;;;;;5090552;28;20593;-63
2023/07/01 12:39:17;;;;;;;5.97;2.73;;;21.50;99.90;;;;;;5090374;28;20262;-63
2023/07/01 12:41:47;;;;;;;5.03;2.40;;;21.40;99.90;;;;;;5090205;28;20228;-63
2023/07/01 12:44:15;;;;;;;2.97;2.50;;;21.30;99.90;;;;;;5089703;28;20576;-64
2023/07/01 12:46:45;;;;;;;3.13;2.53;;;21.10;99.90;;;;;;5090367;28;20219;-62
2023/07/01 12:49:16;;;;;;;2.73;2.50;;;20.90;99.90;;;;;;5068171;28;20588;-63
2023/07/01 12:51:45;;;;;;;4.47;2.70;;;20.80;99.90;;;;;;5068069;28;20225;-62
2023/07/01 12:54:14;;;;;;;5.87;2.70;;;20.70;99.90;;;;;;5090541;28;20227;-63
2023/07/01 12:56:46;;;;;;;5.37;2.60;;;20.80;99.90;;;;;;5089906;28;20604;-63
2023/07/01 12:59:15;;;;;;;2.10;1.90;;;20.90;99.90;;;;;;5089828;28;20233;-63
2023/07/01 13:01:46;;;;;;;2.27;1.70;;;21.00;99.90;;;;;;5088714;28;20695;-62
2023/07/01 13:04:19;;;;;;;2.57;1.73;;;21.00;99.90;;;;;;5091247;28;20581;-63
2023/07/01 13:06:49;;;;;;;2.37;1.50;;;21.10;99.90;;;;;;5080555;28;20693;-64